Historyczne dane pomiarowe

Dodano dane terminowe – wersja testowa.

Dane z okresu 1951-2019

Wersja bazy: 1.34 [2019-03-16, lista zmian], aktualizacja planowana na 2019-04-15

Dane meteo z obszaru Polski uzyskane na podstawie danych udostępnionych przez Instytut Meteorologii i Gospodarki Wodnej – Państwowy Instytut Badawczy.

 

Wybierz Datę:    

       

TemperaturaWilgotnośćWiatrCiśnienieOpadyŚniegCzas trwania zjawisk
 Stacja t tx tn tng RH VA  wxwx mslp ppp RRR   cm mm wxwxwxwxwxwxwx
1987-08-14 14.0 17.6 10.3 7.9 79.0- 6.0 1.3---- 1.3------------
1987-08-13 12.9 17.5 8.8 7.8 84.0- 7.0 1.0---- 0.3------------
1987-08-12 12.3 16.6 9.8 8.9 82.5- 8.0 3.3---- 4.8------------
1987-08-11 12.2 15.9 9.3 8.5 87.5- 8.0 1.3---- 1.8------------
1987-08-10 13.9 17.1 12.3 11.4 86.8- 6.7 1.0---- 0.2------------
1987-08-09 14.7 21.2 9.3 7.4 76.3- 7.0 1.3---- 10.2------------
1987-08-08 13.3 20.7 6.2 3.5 76.8- 4.0 2.3---- 1.3------------
1987-08-07 12.9 17.6 7.8 7.4 74.8- 3.7 3.0---- 0.0------------
1987-08-06 11.0 14.1 9.8 9.4 89.5- 8.0 2.0---- 1.7------------
1987-08-05 11.7 16.6 7.3 5.9 79.0- 6.0 1.7---- 4.4------------
1987-08-04 12.4 16.5 8.9 6.9 87.5- 6.0 1.7---- 5.3------------
1987-08-03 12.3 16.9 8.8 7.9 79.3- 6.7 1.3---- 1.0------------
1987-08-02 13.5 18.7 8.6 7.4 77.8- 3.3 1.7---- 0.2------------
1987-08-01 14.4 17.1 12.2 11.4 90.8- 8.0 1.3---- 9.1------------
1987-07-31 15.2 19.0 13.3 12.3 83.0- 8.0 1.0---- 2.7------------
1987-07-30 15.2 20.7 9.2 7.4 77.8- 8.0 0.3---- 0.9------------
1987-07-29 13.8 18.2 10.8 10.1 79.8- 6.7 1.3---- 0.0------------
1987-07-28 13.7 18.2 10.3 10.2 85.3- 8.0 2.0---- 4.2------------
1987-07-27 10.7 15.5 7.9 6.4 81.8- 8.0 2.7---- 6.8------------
1987-07-26 13.5 16.0 9.4 7.9 73.5- 5.0 1.3---- 0.0------------
1987-07-25 16.5 21.3 13.8 12.4 82.5- 6.0 1.3---- 0.0------------
1987-07-24 19.6 24.1 15.3 14.9 76.8- 5.7 1.3---- 0.0------------
1987-07-23 20.6 25.1 15.6 14.3 80.3- 7.0 0.3---- 18.0------------
1987-07-22 19.5 26.1 13.4 11.9 76.0- 7.0 0.3---- 0.0------------
1987-07-21 17.7 24.1 10.3 9.8 76.5- 2.3 0.3---- 0.0------------
1987-07-20 16.9 21.0 14.3 14.2 89.8- 7.0 0.7---- 0.3------------
1987-07-19 19.0 22.7 15.0 14.4 80.0- 7.0 3.0---- 19.4------------
1987-07-18 20.0 25.6 15.4 14.9 80.8- 8.0 3.0---- 0.0------------
1987-07-17 18.9 24.4 12.5 10.9 70.5- 6.0 5.0---- 1.8------------
1987-07-16 16.6 22.0 9.2 6.4 67.8- 5.7 1.3---- 0.0------------
1987-07-15 15.5 22.5 5.8 4.0 64.8- 2.0 0.7---- 0.0------------
1987-07-14 15.0 19.7 10.8 9.4 66.0- 4.3 3.3---- 0.0------------
1987-07-13 14.7 17.6 11.0 10.0 78.0- 5.7 2.7---- 0.5------------
1987-07-12 16.1 18.6 14.2 13.9 93.5- 6.7 1.0---- 5.4------------
1987-07-11 11.9 14.8 9.2 7.9 88.8- 8.0 0.7---- 9.1------------
1987-07-10 12.3 16.9 9.7 8.4 79.5- 5.3 3.0---- 0.0------------
1987-07-09 17.0 25.3 15.3 15.3 79.3- 8.0 2.0---- 3.7------------
1987-07-08 22.4 28.9 14.8 11.4 57.8- 4.0 2.0---- 16.0------------
1987-07-07 20.3 27.1 9.5 6.9 57.5- 0.7 2.0---- 0.0------------
1987-07-06 18.1 25.1 8.2 5.0 58.5- 0.3 0.3---- 0.0------------
1987-07-05 15.5 21.8 10.3 9.0 69.0- 4.0 2.3---- 0.0------------
1987-07-04 15.2 21.6 9.1 6.8 66.0- 7.0 2.0---- 0.0------------
1987-07-03 16.5 22.2 10.3 7.9 60.8- 2.7 1.0---- 0.0------------
1987-07-02 18.7 23.1 14.8 14.2 64.3- 2.7 2.3---- 0.0------------
1987-07-01 23.7 30.5 19.5 17.8 77.5- 6.0 2.3---- 6.8------------
1987-06-30 23.5 29.0 18.7 17.2 73.3- 4.7 1.3---- 0.0------------
1987-06-29 15.8 22.5 7.3 5.9 83.3- 6.7 1.3---- 1.3------------
1987-06-28 15.0 19.4 12.3 10.7 80.8- 6.7 1.3---- 1.9------------
1987-06-27 17.8 21.4 14.7 14.3 72.5- 5.7 1.3---- 0.2------------
1987-06-26 15.6 20.7 9.8 7.9 75.0- 8.0 2.0---- 0.7------------
1987-06-25 13.2 16.4 9.6 11.4 77.8- 6.0 1.3---- 0.0------------
1987-06-24 14.5 18.2 10.7 10.9 73.5- 6.7 1.7---- 0.3------------
1987-06-23 14.2 19.0 10.8 10.0 86.5- 8.0 1.0---- 3.2------------
1987-06-22 17.2 23.7 9.7 7.4 72.0- 7.3 2.3---- 0.0------------
1987-06-21 17.2 23.9 9.2 6.8 64.3- 4.0 1.3---- 0.0------------
1987-06-20 15.2 21.3 7.3 5.0 66.3- 6.0 1.0---- 0.0------------
1987-06-19 11.5 16.5 7.1 5.9 77.0- 7.3 2.7---- 0.5------------
1987-06-18 10.8 17.1 4.4 3.0 72.5- 7.3 2.0---- 4.1------------
1987-06-17 11.2 13.5 9.8 9.4 76.3- 8.0 2.3---- 0.0------------
1987-06-16 12.2 21.2 8.8 10.6 92.5- 8.0 4.0---- 2.7------------
708.0 ms

 

Źródłem pochodzenia danych jest Instytut Meteorologii i Gospodarki Wodnej – Państwowy Instytut Badawczy. Dane Instytutu Meteorologii i Gospodarki Wodnej – Państwowego Instytutu Badawczego zostały przetworzone.

Dane źródłowe można odnaleźć na stronie https://dane.imgw.pl